Time;durP1;ratioP1;P1;durP2;ratioP2;P2;SDS_P1;SDS_P2;PMS_P1;PMS_P2;Temp;Humidity;BMP_temperature;BMP_pressure;BME280_temperature;BME280_humidity;BME280_pressure;Samples;Min_cycle;Max_cycle;Signal;HPM_P1;HPM_P2
2023/10/09 00:01:01;;;;;;;10.23;5.78;;;11.50;99.90;;;;;;4893648;29;20056;-87
2023/10/09 00:03:00;;;;;;;13.50;6.05;;;11.40;99.90;;;;;;4886628;29;20047;-86
2023/10/09 00:08:30;;;;;;;9.13;5.45;;;11.50;99.90;;;;;;4893656;29;20080;-86
2023/10/09 00:10:58;;;;;;;8.63;5.55;;;11.40;99.90;;;;;;4888274;29;20033;-89
2023/10/09 00:13:31;;;;;;;7.82;4.80;;;11.40;99.90;;;;;;4890734;29;20056;-87
2023/10/09 00:16:16;;;;;;;8.27;4.80;;;11.30;99.90;;;;;;4893798;29;20052;-87
2023/10/09 00:18:46;;;;;;;11.73;5.30;;;11.30;99.90;;;;;;4893501;29;20044;-85
2023/10/09 00:21:20;;;;;;;8.13;4.60;;;11.20;99.90;;;;;;4892984;29;20097;-87
2023/10/09 00:23:59;;;;;;;11.85;5.47;;;11.20;99.90;;;;;;4893383;29;20574;-87
2023/10/09 00:26:25;;;;;;;8.63;5.30;;;11.10;99.90;;;;;;4893211;29;20029;-88
2023/10/09 00:28:51;;;;;;;10.13;5.55;;;11.10;99.90;;;;;;4892830;29;20926;-87
2023/10/09 00:31:36;;;;;;;9.15;5.40;;;11.10;99.90;;;;;;4892864;29;20107;-87
2023/10/09 00:34:03;;;;;;;9.57;5.03;;;11.10;99.90;;;;;;4892925;29;20033;-87
2023/10/09 00:36:29;;;;;;;9.68;5.18;;;11.20;99.90;;;;;;4892613;29;20072;-88
2023/10/09 00:38:54;;;;;;;7.65;4.75;;;11.20;99.90;;;;;;4892791;29;20066;-87
2023/10/09 00:41:24;;;;;;;8.98;4.53;;;11.20;99.90;;;;;;4892583;29;20032;-87
2023/10/09 00:43:51;;;;;;;8.15;4.82;;;11.20;99.90;;;;;;4892611;29;20093;-87
2023/10/09 00:48:48;;;;;;;9.18;5.00;;;11.10;99.90;;;;;;4890173;29;20459;-88
2023/10/09 00:51:17;;;;;;;7.72;5.10;;;11.10;99.90;;;;;;4892095;29;20037;-86
2023/10/09 00:53:51;;;;;;;8.30;4.90;;;11.00;99.90;;;;;;4892980;29;20032;-88
2023/10/09 00:59:14;;;;;;;7.10;4.28;;;10.90;99.90;;;;;;4892436;29;20087;-87
2023/10/09 01:01:45;;;;;;;9.40;5.00;;;10.90;99.90;;;;;;4893297;29;20037;-87
2023/10/09 01:04:15;;;;;;;7.97;4.93;;;10.90;99.90;;;;;;4892490;29;20040;-88
2023/10/09 01:06:44;;;;;;;6.60;4.57;;;10.90;99.90;;;;;;4893524;29;20036;-88
2023/10/09 01:09:22;;;;;;;10.35;4.88;;;10.80;99.90;;;;;;4892692;29;20040;-87
2023/10/09 01:14:26;;;;;;;7.35;5.15;;;10.90;99.90;;;;;;4875060;29;20065;-88
2023/10/09 01:16:54;;;;;;;11.50;5.53;;;10.90;99.90;;;;;;4874149;29;20041;-87
2023/10/09 01:19:23;;;;;;;8.80;4.97;;;10.80;99.90;;;;;;4876890;29;20067;-86
2023/10/09 01:21:52;;;;;;;11.18;6.38;;;10.90;99.90;;;;;;4891846;29;20072;-87
2023/10/09 01:24:19;;;;;;;12.80;6.63;;;10.90;99.90;;;;;;4891362;29;20182;-87
2023/10/09 01:26:49;;;;;;;10.85;6.47;;;11.00;99.90;;;;;;4892440;29;20036;-87
2023/10/09 01:29:19;;;;;;;11.40;6.28;;;11.00;99.90;;;;;;4892293;29;20511;-88
2023/10/09 01:31:55;;;;;;;9.50;5.60;;;11.10;99.90;;;;;;4891284;29;20043;-88
2023/10/09 01:34:24;;;;;;;10.38;6.07;;;11.10;99.90;;;;;;4891822;29;20052;-87
2023/10/09 01:36:58;;;;;;;9.70;5.80;;;11.10;99.90;;;;;;4892148;29;20072;-87
2023/10/09 01:39:26;;;;;;;11.65;6.85;;;11.10;99.90;;;;;;4891141;29;20569;-88
2023/10/09 01:41:58;;;;;;;11.93;6.80;;;11.10;99.90;;;;;;4891549;29;20103;-88
2023/10/09 01:44:34;;;;;;;10.27;6.55;;;11.10;99.90;;;;;;4889610;29;20044;-86
2023/10/09 01:47:07;;;;;;;13.80;6.40;;;11.10;99.90;;;;;;4891605;29;20024;-87
2023/10/09 01:49:41;;;;;;;11.90;7.32;;;11.10;99.90;;;;;;4891561;29;20439;-87
2023/10/09 01:52:16;;;;;;;13.25;6.68;;;11.10;99.90;;;;;;4893595;29;20112;-87
2023/10/09 01:54:49;;;;;;;10.45;6.88;;;11.10;99.90;;;;;;4892762;29;20040;-87
2023/10/09 01:57:21;;;;;;;10.90;6.55;;;11.10;99.90;;;;;;4893827;29;20044;-88
2023/10/09 01:59:49;;;;;;;13.00;7.10;;;11.10;99.90;;;;;;4891110;29;20028;-87
2023/10/09 02:02:25;;;;;;;11.95;6.68;;;11.10;99.90;;;;;;4891868;29;20033;-87
2023/10/09 02:07:44;;;;;;;10.63;5.80;;;11.00;99.90;;;;;;4891528;29;20184;-88
2023/10/09 02:12:57;;;;;;;10.23;5.72;;;10.80;99.90;;;;;;4888495;29;20756;-87
2023/10/09 02:23:30;;;;;;;10.23;5.20;;;10.80;99.90;;;;;;4891190;29;20140;-86
2023/10/09 02:26:05;;;;;;;8.30;5.32;;;10.90;99.90;;;;;;4890078;29;20088;-88
2023/10/09 02:28:35;;;;;;;9.27;5.18;;;10.90;99.90;;;;;;4890633;29;20041;-87
2023/10/09 02:31:09;;;;;;;10.98;5.80;;;10.90;99.90;;;;;;4887661;29;20040;-86
2023/10/09 02:33:36;;;;;;;12.88;5.65;;;10.90;99.90;;;;;;4889811;29;20253;-87
2023/10/09 02:36:08;;;;;;;8.48;5.05;;;11.00;99.90;;;;;;4890795;29;20057;-87
2023/10/09 02:38:37;;;;;;;8.85;5.28;;;11.00;99.90;;;;;;4890470;29;20047;-88
2023/10/09 02:43:40;;;;;;;8.80;5.40;;;10.90;99.90;;;;;;4890147;29;20028;-87
2023/10/09 02:46:14;;;;;;;9.88;5.15;;;10.90;99.90;;;;;;4889532;29;20056;-87
2023/10/09 02:48:42;;;;;;;8.95;5.78;;;10.80;99.90;;;;;;4892868;29;20070;-87
2023/10/09 02:51:17;;;;;;;8.90;5.20;;;10.70;99.90;;;;;;4890499;29;20085;-86
2023/10/09 02:53:43;;;;;;;9.43;5.03;;;10.70;99.90;;;;;;4894689;29;20088;-86
2023/10/09 02:56:12;;;;;;;7.97;5.00;;;10.60;99.90;;;;;;4894830;29;20067;-87
2023/10/09 02:58:42;;;;;;;8.68;4.90;;;10.60;99.90;;;;;;4894056;29;20154;-87
2023/10/09 03:01:13;;;;;;;9.02;5.55;;;10.50;99.90;;;;;;4894747;29;20376;-86
2023/10/09 03:03:41;;;;;;;9.03;5.47;;;10.40;99.90;;;;;;4894931;29;20063;-86
2023/10/09 03:06:11;;;;;;;9.20;5.25;;;10.40;99.90;;;;;;4894838;29;20036;-86
2023/10/09 03:08:37;;;;;;;10.75;5.25;;;10.40;99.90;;;;;;4894817;29;20152;-86
2023/10/09 03:11:05;;;;;;;8.60;5.30;;;10.40;99.90;;;;;;4895203;29;20032;-87
2023/10/09 03:13:33;;;;;;;9.15;5.75;;;10.30;99.90;;;;;;4893581;29;20806;-87
2023/10/09 03:15:59;;;;;;;10.35;6.07;;;10.30;99.90;;;;;;4894871;29;20036;-87
2023/10/09 03:18:24;;;;;;;8.60;5.32;;;10.30;99.90;;;;;;4894409;29;20044;-87
2023/10/09 03:20:50;;;;;;;10.77;5.45;;;10.30;99.90;;;;;;4895364;29;20072;-87
2023/10/09 03:23:16;;;;;;;8.70;5.40;;;10.30;99.90;;;;;;4893815;29;20056;-87
2023/10/09 03:25:45;;;;;;;8.43;5.43;;;10.30;99.90;;;;;;4894805;29;20024;-85
2023/10/09 03:28:12;;;;;;;10.50;5.78;;;10.30;99.90;;;;;;4894007;29;20037;-88
2023/10/09 03:30:40;;;;;;;12.05;6.15;;;10.30;99.90;;;;;;4893602;29;20116;-87
2023/10/09 03:33:06;;;;;;;8.48;5.40;;;10.30;99.90;;;;;;4894755;29;20041;-86
2023/10/09 03:35:34;;;;;;;12.07;5.75;;;10.30;99.90;;;;;;4894425;29;20123;-86
2023/10/09 03:38:02;;;;;;;9.02;5.15;;;10.30;99.90;;;;;;4895322;29;20217;-87
2023/10/09 03:40:28;;;;;;;8.88;5.55;;;10.40;99.90;;;;;;4893802;29;20623;-87
2023/10/09 03:42:53;;;;;;;7.38;5.00;;;10.40;99.90;;;;;;4894059;29;20037;-87
2023/10/09 03:45:26;;;;;;;7.38;5.07;;;10.40;99.90;;;;;;4893997;29;20028;-87
2023/10/09 03:47:57;;;;;;;9.40;5.45;;;10.40;99.90;;;;;;4894333;29;20029;-86
2023/10/09 03:50:38;;;;;;;13.43;6.70;;;10.40;99.90;;;;;;4888524;29;20028;-86
2023/10/09 03:53:07;;;;;;;10.00;6.18;;;10.40;99.90;;;;;;4884307;29;20051;-87
2023/10/09 03:55:34;;;;;;;11.85;7.28;;;10.40;99.90;;;;;;4894053;29;20032;-86
2023/10/09 03:58:00;;;;;;;14.02;7.70;;;10.40;99.90;;;;;;4894315;29;20510;-88
2023/10/09 04:00:29;;;;;;;13.05;6.60;;;10.50;99.90;;;;;;4893821;29;20096;-88
2023/10/09 04:02:57;;;;;;;15.35;7.68;;;10.50;99.90;;;;;;4893412;29;20104;-88
2023/10/09 04:05:23;;;;;;;10.32;6.63;;;10.50;99.90;;;;;;4893716;29;20083;-87
2023/10/09 04:07:49;;;;;;;13.07;6.70;;;10.50;99.90;;;;;;4892951;29;20032;-85
2023/10/09 04:10:43;;;;;;;11.70;6.55;;;10.50;99.90;;;;;;4892907;29;20044;-87
2023/10/09 04:13:12;;;;;;;11.88;6.72;;;10.50;99.90;;;;;;4892633;29;20058;-87
2023/10/09 04:15:37;;;;;;;12.23;6.82;;;10.50;99.90;;;;;;4894013;29;20084;-88
2023/10/09 04:18:06;;;;;;;12.48;6.85;;;10.40;99.90;;;;;;4887227;29;20040;-87
2023/10/09 04:21:18;;;;;;;12.63;6.32;;;10.40;99.90;;;;;;4895410;29;20080;-87
2023/10/09 04:24:22;;;;;;;7.75;5.60;;;10.40;99.90;;;;;;4877497;29;20037;-77
2023/10/09 04:26:46;;;;;;;8.80;5.63;;;10.30;99.90;;;;;;4878267;29;20033;-77
2023/10/09 04:29:26;;;;;;;9.93;5.50;;;10.20;99.90;;;;;;4888345;29;20447;-77
2023/10/09 04:31:56;;;;;;;10.10;5.43;;;10.20;99.90;;;;;;4881295;29;20124;-77
2023/10/09 04:37:00;;;;;;;9.90;5.05;;;10.10;99.90;;;;;;4889701;29;20032;-77
2023/10/09 04:42:18;;;;;;;10.55;6.28;;;10.00;99.90;;;;;;4889754;29;20029;-77
2023/10/09 04:45:18;;;;;;;10.25;7.10;;;10.00;99.90;;;;;;4887797;29;20126;-77
2023/10/09 04:47:57;;;;;;;13.43;6.15;;;10.00;99.90;;;;;;4889817;29;20032;-77
2023/10/09 04:55:53;;;;;;;10.07;5.90;;;10.10;99.90;;;;;;4885357;29;20172;-77
2023/10/09 04:58:26;;;;;;;8.73;5.45;;;10.10;99.90;;;;;;4875076;29;20092;-77
2023/10/09 05:03:44;;;;;;;8.32;5.57;;;10.10;99.90;;;;;;4867917;29;20511;-77
2023/10/09 05:06:20;;;;;;;11.40;5.40;;;10.10;99.90;;;;;;4866127;29;20049;-77
2023/10/09 05:08:48;;;;;;;9.55;5.88;;;10.10;99.90;;;;;;4866863;29;20036;-77
2023/10/09 05:14:11;;;;;;;9.95;5.38;;;10.00;99.90;;;;;;4882748;29;20099;-78
2023/10/09 05:16:37;;;;;;;8.85;5.55;;;10.00;99.90;;;;;;4872325;29;20047;-77
2023/10/09 05:19:06;;;;;;;9.18;5.97;;;10.00;99.90;;;;;;4883675;29;20040;-77
2023/10/09 05:21:44;;;;;;;7.93;5.10;;;9.90;99.90;;;;;;4885484;29;20024;-77
2023/10/09 05:34:33;;;;;;;8.23;4.70;;;9.80;99.90;;;;;;4885457;29;20600;-77
2023/10/09 05:37:22;;;;;;;9.00;5.18;;;9.80;99.90;;;;;;4884381;29;20044;-77
2023/10/09 05:42:43;;;;;;;10.95;4.95;;;9.70;99.90;;;;;;4887848;29;20040;-77
2023/10/09 05:50:37;;;;;;;9.32;4.60;;;9.70;99.90;;;;;;4875697;29;20072;-77
2023/10/09 06:04:04;;;;;;;10.13;5.88;;;10.10;99.90;;;;;;4887241;29;20161;-76
2023/10/09 06:06:32;;;;;;;9.60;5.47;;;10.20;99.90;;;;;;4881022;29;20419;-76
2023/10/09 06:17:01;;;;;;;7.38;4.10;;;10.30;99.90;;;;;;4882505;29;20511;-76
2023/10/09 06:19:31;;;;;;;6.95;4.88;;;10.30;99.90;;;;;;4882437;29;20552;-77
2023/10/09 06:24:54;;;;;;;12.07;5.38;;;10.20;99.90;;;;;;4884142;29;20047;-76
2023/10/09 06:30:46;;;;;;;10.88;6.32;;;10.20;99.90;;;;;;4877618;29;20048;-77
2023/10/09 06:32:51;;;;;;;16.90;6.65;;;10.20;99.90;;;;;;4869586;29;20059;-76
2023/10/09 06:43:09;;;;;;;10.35;6.05;;;10.20;99.90;;;;;;4883252;29;20044;-75
2023/10/09 06:45:45;;;;;;;12.63;7.63;;;10.30;99.90;;;;;;4884718;29;20036;-77
2023/10/09 06:51:12;;;;;;;12.70;7.53;;;10.30;99.90;;;;;;4882363;29;20899;-76
2023/10/09 06:58:55;;;;;;;14.65;6.90;;;10.60;99.90;;;;;;4869495;29;20060;-77
2023/10/09 07:03:53;;;;;;;17.67;9.93;;;10.80;99.90;;;;;;4876927;29;20131;-76
2023/10/09 07:06:47;;;;;;;9.80;4.90;;;11.00;99.90;;;;;;4868373;29;20029;-76
2023/10/09 07:14:07;;;;;;;8.75;6.03;;;11.80;99.90;;;;;;4886765;29;20052;-76
2023/10/09 07:16:39;;;;;;;8.75;6.10;;;12.00;99.90;;;;;;4881858;29;20086;-76
2023/10/09 07:21:54;;;;;;;10.00;5.53;;;12.30;99.90;;;;;;4878266;29;20731;-76
2023/10/09 07:24:24;;;;;;;8.82;4.93;;;12.50;99.90;;;;;;4875081;29;20147;-76
2023/10/09 07:26:52;;;;;;;10.98;4.68;;;12.70;99.90;;;;;;4888765;29;20088;-76
2023/10/09 07:29:22;;;;;;;9.90;5.47;;;12.80;99.90;;;;;;4889464;29;20482;-76
2023/10/09 07:31:56;;;;;;;10.50;5.68;;;13.20;99.90;;;;;;4875501;29;20423;-76
2023/10/09 07:34:32;;;;;;;10.20;5.55;;;13.70;99.90;;;;;;4875641;29;20037;-76
2023/10/09 07:37:03;;;;;;;9.55;5.97;;;14.50;99.90;;;;;;4884689;29;20048;-75
2023/10/09 07:39:34;;;;;;;11.77;5.40;;;15.20;99.90;;;;;;4875511;29;20037;-76
2023/10/09 07:42:18;;;;;;;9.25;5.20;;;16.20;99.90;;;;;;4883251;29;20092;-76
2023/10/09 07:44:52;;;;;;;10.93;5.55;;;16.90;99.90;;;;;;4881878;29;20036;-76
2023/10/09 07:50:04;;;;;;;11.57;6.00;;;18.40;99.90;;;;;;4884367;29;20047;-76
2023/10/09 07:52:29;;;;;;;8.95;5.97;;;19.90;99.90;;;;;;4885534;29;20124;-77
2023/10/09 07:55:01;;;;;;;8.43;4.95;;;21.50;99.90;;;;;;4889956;29;20570;-76
2023/10/09 07:57:38;;;;;;;10.68;5.88;;;22.50;99.90;;;;;;4881179;29;20071;-77
2023/10/09 08:00:36;;;;;;;8.63;5.78;;;23.60;99.90;;;;;;4879611;29;20044;-77
2023/10/09 08:03:00;;;;;;;9.38;4.75;;;24.50;99.40;;;;;;4885485;29;20037;-77
2023/10/09 08:05:33;;;;;;;11.38;5.85;;;25.30;96.00;;;;;;4879305;29;20025;-77
2023/10/09 08:08:18;;;;;;;11.43;5.97;;;25.40;91.70;;;;;;4884618;29;20037;-76
2023/10/09 08:16:20;;;;;;;11.18;7.50;;;22.80;98.40;;;;;;4889871;29;20139;-76
2023/10/09 08:18:45;;;;;;;11.82;7.65;;;21.80;99.90;;;;;;4888399;29;20048;-76
2023/10/09 08:23:49;;;;;;;11.95;6.63;;;20.50;99.90;;;;;;4888429;29;20117;-76
2023/10/09 08:26:47;;;;;;;11.35;7.00;;;19.90;99.90;;;;;;4549995;29;10000166;-76
2023/10/09 08:29:19;;;;;;;10.38;6.38;;;19.50;99.90;;;;;;4886584;29;20054;-76
2023/10/09 08:31:45;;;;;;;10.77;6.53;;;19.10;99.90;;;;;;4884809;29;20040;-76
2023/10/09 08:34:27;;;;;;;14.55;7.85;;;18.80;99.90;;;;;;4884855;29;20036;-77
2023/10/09 08:36:53;;;;;;;11.75;6.72;;;18.70;99.90;;;;;;4882041;29;20118;-77
2023/10/09 08:39:27;;;;;;;12.02;6.63;;;18.60;99.90;;;;;;4209523;29;10000836;-76
2023/10/09 08:41:57;;;;;;;10.80;7.15;;;18.50;99.90;;;;;;4884302;29;20080;-77
2023/10/09 08:44:26;;;;;;;14.13;8.43;;;18.50;99.90;;;;;;4883776;29;20691;-77
2023/10/09 08:46:54;;;;;;;18.88;9.15;;;18.40;99.90;;;;;;4879270;29;20037;-77
2023/10/09 08:49:21;;;;;;;23.02;8.23;;;18.40;99.90;;;;;;4868601;29;20041;-77
2023/10/09 08:51:48;;;;;;;22.30;7.95;;;18.30;99.90;;;;;;4886256;29;20088;-78
2023/10/09 08:54:14;;;;;;;32.35;12.27;;;18.40;99.90;;;;;;4889594;29;20032;-79
2023/10/09 08:56:49;;;;;;;15.57;8.32;;;18.40;99.90;;;;;;4887955;29;20044;-80
2023/10/09 08:59:18;;;;;;;14.32;7.68;;;18.40;99.90;;;;;;4886316;29;20116;-78
2023/10/09 09:01:44;;;;;;;27.30;10.63;;;18.50;99.90;;;;;;4871556;29;20029;-78
2023/10/09 09:04:11;;;;;;;20.80;11.18;;;18.80;99.90;;;;;;4888621;29;20116;-78
2023/10/09 09:06:41;;;;;;;23.58;10.98;;;19.10;99.90;;;;;;4887309;29;20898;-78
2023/10/09 09:09:13;;;;;;;17.33;9.50;;;19.50;99.90;;;;;;4886012;29;20043;-78
2023/10/09 09:11:49;;;;;;;21.30;8.82;;;20.10;99.90;;;;;;4887022;29;20084;-78
2023/10/09 09:14:18;;;;;;;16.08;8.27;;;20.50;99.90;;;;;;4885610;29;20047;-78
2023/10/09 09:16:48;;;;;;;16.15;7.45;;;20.60;99.90;;;;;;4875515;29;20142;-77
2023/10/09 09:19:17;;;;;;;13.30;6.00;;;20.60;99.90;;;;;;4880162;29;20041;-79
2023/10/09 09:21:49;;;;;;;14.77;6.70;;;20.60;99.90;;;;;;4873377;29;20028;-79
2023/10/09 09:26:59;;;;;;;9.23;5.32;;;20.20;99.90;;;;;;4888203;29;20040;-78
2023/10/09 09:29:37;;;;;;;10.93;5.50;;;20.10;99.90;;;;;;4880160;29;20020;-78
2023/10/09 09:32:18;;;;;;;14.85;5.38;;;19.90;99.90;;;;;;4887782;29;20032;-80
2023/10/09 09:35:05;;;;;;;10.65;4.78;;;20.00;99.90;;;;;;4882607;29;20116;-78
2023/10/09 09:40:28;;;;;;;12.82;5.00;;;20.50;99.90;;;;;;4885722;29;20044;-79
2023/10/09 09:43:05;;;;;;;11.95;4.40;;;21.00;99.90;;;;;;4888727;29;20040;-79
2023/10/09 09:45:38;;;;;;;10.38;4.45;;;21.90;99.90;;;;;;4883619;29;20036;-80
2023/10/09 09:48:12;;;;;;;9.82;4.50;;;22.40;99.90;;;;;;4884739;29;20606;-78
2023/10/09 09:50:43;;;;;;;136.05;8.73;;;22.70;99.90;;;;;;4885686;29;20033;-79
2023/10/09 09:53:23;;;;;;;32.72;4.80;;;23.00;99.90;;;;;;4887615;29;20033;-78
2023/10/09 09:55:59;;;;;;;17.97;3.97;;;23.30;99.90;;;;;;4888583;29;20033;-79
2023/10/09 09:58:32;;;;;;;14.35;3.63;;;23.80;99.90;;;;;;4886288;29;20330;-78
2023/10/09 10:01:15;;;;;;;20.60;4.38;;;24.00;99.90;;;;;;4878759;29;20029;-78
2023/10/09 10:03:45;;;;;;;9.98;3.45;;;24.20;99.90;;;;;;4882639;29;20737;-91
2023/10/09 10:06:13;;;;;;;12.02;4.10;;;24.60;99.90;;;;;;4892097;29;20036;-87
2023/10/09 10:08:41;;;;;;;8.75;3.83;;;25.40;99.90;;;;;;4888534;29;20356;-86
2023/10/09 10:11:13;;;;;;;8.40;3.85;;;26.50;99.90;;;;;;4890505;29;20040;-88
2023/10/09 10:13:42;;;;;;;6.60;3.65;;;27.60;97.10;;;;;;4883374;29;20052;-85
2023/10/09 10:16:20;;;;;;;5.82;3.67;;;28.50;94.20;;;;;;4887068;29;20075;-89
2023/10/09 10:22:01;;;;;;;6.43;4.25;;;29.30;85.30;;;;;;4874765;29;20060;-87
2023/10/09 10:24:35;;;;;;;7.30;3.75;;;29.30;84.50;;;;;;4891474;29;20036;-86
2023/10/09 10:27:11;;;;;;;7.38;4.13;;;29.10;79.40;;;;;;4891042;29;20083;-88
2023/10/09 10:29:38;;;;;;;7.45;3.78;;;28.90;83.00;;;;;;4890618;29;20044;-87
2023/10/09 10:32:08;;;;;;;10.65;3.70;;;28.60;76.40;;;;;;4888992;29;20050;-89
2023/10/09 10:34:55;;;;;;;9.40;3.95;;;28.10;77.70;;;;;;4888551;29;20394;-88
2023/10/09 10:37:28;;;;;;;10.55;3.58;;;27.50;84.40;;;;;;4884580;29;20048;-87
2023/10/09 10:39:59;;;;;;;6.38;3.40;;;27.10;90.10;;;;;;4883811;29;20093;-88
2023/10/09 10:42:34;;;;;;;7.15;3.35;;;27.10;86.00;;;;;;4888795;29;20036;-85
2023/10/09 10:45:25;;;;;;;7.43;3.80;;;27.50;85.50;;;;;;4891163;29;20032;-85
2023/10/09 10:47:49;;;;;;;7.07;3.65;;;28.10;80.60;;;;;;4891666;29;20071;-87
2023/10/09 10:53:14;;;;;;;6.45;3.38;;;28.50;79.10;;;;;;4892067;29;20044;-86
2023/10/09 10:55:56;;;;;;;7.00;3.40;;;29.00;78.70;;;;;;4887000;29;20024;-86
2023/10/09 10:58:25;;;;;;;6.70;3.53;;;29.40;74.10;;;;;;4891732;29;20073;-88
2023/10/09 11:03:35;;;;;;;7.45;3.60;;;29.90;77.10;;;;;;4892030;29;20037;-87
2023/10/09 11:06:13;;;;;;;9.15;3.28;;;30.10;74.20;;;;;;4891731;29;20040;-86
2023/10/09 11:08:54;;;;;;;7.32;3.28;;;29.90;72.70;;;;;;4891373;29;20036;-87
2023/10/09 11:11:20;;;;;;;10.35;3.10;;;29.50;71.90;;;;;;4890619;29;20120;-87
2023/10/09 11:13:57;;;;;;;5.95;3.60;;;29.30;75.40;;;;;;4887824;29;20063;-87
2023/10/09 11:16:42;;;;;;;5.80;3.13;;;29.20;75.60;;;;;;4895018;29;20036;-87
2023/10/09 11:19:22;;;;;;;7.90;3.15;;;29.00;71.10;;;;;;4895115;29;20411;-87
2023/10/09 11:21:58;;;;;;;6.77;3.00;;;28.80;75.30;;;;;;4895269;29;20047;-85
2023/10/09 11:24:24;;;;;;;9.15;3.05;;;28.80;77.20;;;;;;4879554;29;20033;-87
2023/10/09 11:26:56;;;;;;;6.78;3.47;;;29.00;74.90;;;;;;4880735;29;20048;-88
2023/10/09 11:29:28;;;;;;;5.72;3.58;;;29.00;74.00;;;;;;4894792;29;20036;-88
2023/10/09 11:32:05;;;;;;;7.65;3.22;;;29.00;73.10;;;;;;4894677;29;20032;-85
2023/10/09 11:34:37;;;;;;;6.28;3.83;;;28.80;73.60;;;;;;4894075;29;20072;-86
2023/10/09 11:37:25;;;;;;;5.43;3.58;;;28.80;73.20;;;;;;4876566;29;20057;-86
2023/10/09 11:39:51;;;;;;;6.70;3.53;;;28.90;74.40;;;;;;4877584;29;20037;-86
2023/10/09 11:42:49;;;;;;;6.85;4.15;;;29.00;74.90;;;;;;4894755;29;20059;-87
2023/10/09 11:45:24;;;;;;;7.70;3.97;;;29.00;72.00;;;;;;4894310;29;20036;-86
2023/10/09 11:47:57;;;;;;;6.78;3.60;;;28.90;74.10;;;;;;4894863;29;20154;-86
2023/10/09 11:50:51;;;;;;;8.35;3.50;;;28.80;75.20;;;;;;4893134;29;20065;-86
2023/10/09 11:53:19;;;;;;;6.85;3.60;;;28.50;71.30;;;;;;4886369;29;20844;-87
2023/10/09 11:55:48;;;;;;;8.77;3.45;;;28.50;73.40;;;;;;4891244;29;20028;-86
2023/10/09 11:58:24;;;;;;;4.97;3.13;;;28.50;80.90;;;;;;4875652;29;20554;-86
2023/10/09 12:00:59;;;;;;;7.00;3.53;;;28.50;78.90;;;;;;4878077;29;20165;-87
2023/10/09 12:03:29;;;;;;;7.82;3.42;;;28.40;77.70;;;;;;4880534;29;20033;-86
2023/10/09 12:06:05;;;;;;;6.72;3.42;;;28.30;76.20;;;;;;4873782;29;20069;-87
2023/10/09 12:08:34;;;;;;;9.70;3.28;;;28.20;79.00;;;;;;4893458;29;20047;-87
2023/10/09 12:11:07;;;;;;;6.60;3.13;;;28.20;79.80;;;;;;4893750;29;20516;-87
2023/10/09 12:13:33;;;;;;;6.75;3.40;;;28.20;72.80;;;;;;4893818;29;20213;-87
2023/10/09 12:15:59;;;;;;;8.75;3.55;;;28.20;75.60;;;;;;4894224;29;20032;-86
2023/10/09 12:18:25;;;;;;;8.52;3.38;;;28.30;76.90;;;;;;4893658;29;20040;-87
2023/10/09 12:20:51;;;;;;;8.60;3.53;;;28.40;76.00;;;;;;4539505;29;9999607;-86
2023/10/09 12:23:21;;;;;;;4.65;3.28;;;28.50;76.00;;;;;;4882439;29;20033;-87
2023/10/09 12:25:51;;;;;;;5.82;3.10;;;28.50;72.30;;;;;;4893569;29;20037;-86
2023/10/09 12:28:20;;;;;;;6.22;2.65;;;28.50;72.80;;;;;;4893244;29;20029;-84
2023/10/09 12:30:50;;;;;;;14.52;3.67;;;28.60;80.00;;;;;;4893300;29;20511;-84
2023/10/09 12:33:18;;;;;;;7.77;2.97;;;28.40;74.60;;;;;;4875054;29;20107;-84
2023/10/09 12:35:45;;;;;;;6.32;3.00;;;28.30;75.30;;;;;;4879716;29;20120;-83
2023/10/09 12:38:12;;;;;;;8.60;3.33;;;28.40;75.70;;;;;;4893505;29;20060;-83
2023/10/09 12:40:41;;;;;;;5.78;3.08;;;28.30;77.20;;;;;;4893713;29;20432;-87
2023/10/09 12:43:15;;;;;;;8.18;3.10;;;28.30;75.30;;;;;;4894002;29;20056;-86
2023/10/09 12:45:42;;;;;;;6.10;3.17;;;28.40;76.00;;;;;;4891080;29;20229;-86
2023/10/09 12:48:09;;;;;;;6.72;3.38;;;28.40;72.50;;;;;;4889721;29;20530;-86
2023/10/09 12:50:41;;;;;;;8.27;3.50;;;28.40;70.60;;;;;;4893021;29;20117;-86
2023/10/09 12:53:08;;;;;;;9.35;3.05;;;28.30;69.20;;;;;;4887178;29;20029;-86
2023/10/09 12:55:41;;;;;;;7.00;2.90;;;28.20;77.90;;;;;;4889858;29;20071;-78
2023/10/09 12:58:08;;;;;;;7.80;3.47;;;28.10;70.50;;;;;;4886172;29;20072;-78
2023/10/09 13:00:37;;;;;;;5.78;3.17;;;27.90;69.60;;;;;;4884253;29;20036;-78
2023/10/09 13:03:16;;;;;;;6.10;3.50;;;27.70;73.90;;;;;;4889137;29;20079;-78
2023/10/09 13:05:52;;;;;;;6.25;3.35;;;27.60;75.30;;;;;;4881928;29;20443;-76
2023/10/09 13:08:40;;;;;;;6.90;3.15;;;27.60;73.90;;;;;;4887689;29;20036;-78
2023/10/09 13:11:10;;;;;;;5.70;3.25;;;27.50;69.80;;;;;;4888050;29;20051;-78
2023/10/09 13:13:40;;;;;;;6.87;3.37;;;27.50;75.60;;;;;;4885112;29;20067;-78
2023/10/09 13:16:12;;;;;;;5.15;2.88;;;27.40;73.50;;;;;;4888766;29;20479;-79
2023/10/09 13:18:39;;;;;;;7.63;3.13;;;27.50;70.50;;;;;;4887500;29;20435;-80
2023/10/09 13:21:05;;;;;;;7.30;3.40;;;27.40;71.00;;;;;;4890536;29;20021;-80
2023/10/09 13:23:38;;;;;;;6.00;3.05;;;27.30;73.80;;;;;;4889737;29;20051;-79
2023/10/09 13:26:17;;;;;;;8.77;3.10;;;27.30;69.90;;;;;;4876624;29;20041;-78
2023/10/09 13:28:45;;;;;;;7.40;2.90;;;27.30;74.50;;;;;;4871817;29;20041;-80
2023/10/09 13:31:13;;;;;;;5.07;3.03;;;27.40;73.40;;;;;;4888064;29;20037;-78
2023/10/09 13:33:40;;;;;;;7.30;2.70;;;27.50;73.60;;;;;;4888435;29;20060;-77
2023/10/09 13:36:16;;;;;;;6.07;3.47;;;27.50;73.90;;;;;;4548178;29;10000244;-77
2023/10/09 13:38:43;;;;;;;5.30;2.72;;;27.40;70.90;;;;;;4888333;29;20549;-79
2023/10/09 13:41:12;;;;;;;5.43;2.88;;;27.40;71.00;;;;;;4889770;29;20131;-79
2023/10/09 13:43:42;;;;;;;6.13;3.80;;;27.30;71.30;;;;;;4549451;29;10000665;-80
2023/10/09 13:46:09;;;;;;;9.55;3.15;;;27.20;74.10;;;;;;4886465;29;20423;-79
2023/10/09 13:48:38;;;;;;;5.28;3.10;;;27.20;77.00;;;;;;4884189;29;20108;-76
2023/10/09 13:51:24;;;;;;;5.00;3.03;;;27.20;75.70;;;;;;4885280;29;20055;-76
2023/10/09 13:53:50;;;;;;;5.72;3.30;;;27.10;72.60;;;;;;4883164;29;20036;-76
2023/10/09 13:56:20;;;;;;;6.88;3.63;;;27.10;70.80;;;;;;4884833;29;20410;-76
2023/10/09 13:58:50;;;;;;;8.40;3.40;;;27.10;74.70;;;;;;4873882;29;20412;-76
2023/10/09 14:01:28;;;;;;;6.47;3.13;;;27.00;75.30;;;;;;4875012;29;20061;-76
2023/10/09 14:03:59;;;;;;;8.10;3.05;;;27.00;77.20;;;;;;4885090;29;20107;-77
2023/10/09 14:06:32;;;;;;;8.88;3.20;;;27.00;75.00;;;;;;4884042;29;20035;-76
2023/10/09 14:09:09;;;;;;;12.43;5.30;;;26.90;70.10;;;;;;4884955;29;20028;-79
2023/10/09 14:11:39;;;;;;;10.50;3.70;;;26.80;73.30;;;;;;4882916;29;20048;-80
2023/10/09 14:14:09;;;;;;;5.65;3.42;;;26.80;77.10;;;;;;4885701;29;20417;-79
2023/10/09 14:16:36;;;;;;;8.38;3.40;;;26.60;76.30;;;;;;4885792;29;20040;-79
2023/10/09 14:19:07;;;;;;;6.32;3.33;;;26.60;74.30;;;;;;4887648;29;20040;-79
2023/10/09 14:21:37;;;;;;;;;;;26.50;71.20;;;;;;4886506;29;20032;-79
2023/10/09 14:24:14;;;;;;;8.38;3.63;;;26.40;72.30;;;;;;4885175;29;19921;-79
2023/10/09 14:26:46;;;;;;;9.93;6.30;;;26.30;75.70;;;;;;4884818;29;20136;-78
2023/10/09 14:29:16;;;;;;;7.63;3.47;;;26.20;76.50;;;;;;4886089;29;20793;-78
2023/10/09 14:31:59;;;;;;;5.67;3.50;;;26.10;74.60;;;;;;4884860;29;20539;-76
2023/10/09 14:34:29;;;;;;;8.00;3.80;;;26.10;73.30;;;;;;4887475;29;20114;-79
2023/10/09 14:36:55;;;;;;;8.07;3.50;;;26.10;77.50;;;;;;4884207;29;20132;-78
2023/10/09 14:39:26;;;;;;;51.67;5.68;;;26.00;77.10;;;;;;4885296;29;20132;-78
2023/10/09 14:41:54;;;;;;;5.78;3.20;;;25.80;79.50;;;;;;4884896;29;20044;-79
2023/10/09 14:44:20;;;;;;;7.15;3.17;;;25.70;74.40;;;;;;4885066;29;20088;-78
2023/10/09 14:46:46;;;;;;;6.32;3.28;;;25.60;80.10;;;;;;4882365;29;20084;-79
2023/10/09 14:49:14;;;;;;;5.72;3.45;;;25.60;83.30;;;;;;4885491;29;20040;-79
2023/10/09 14:51:44;;;;;;;8.40;3.47;;;25.50;83.00;;;;;;4884695;29;20056;-78
2023/10/09 14:54:10;;;;;;;9.30;3.38;;;25.30;79.00;;;;;;4885173;29;20111;-80
2023/10/09 14:56:37;;;;;;;7.20;3.40;;;25.30;77.70;;;;;;4885951;29;20035;-79
2023/10/09 14:59:03;;;;;;;5.70;2.97;;;25.30;79.50;;;;;;4886687;29;20048;-78
2023/10/09 15:01:30;;;;;;;6.45;3.42;;;25.20;80.20;;;;;;4883665;29;20044;-80
2023/10/09 15:03:57;;;;;;;5.40;3.42;;;25.10;84.40;;;;;;4886836;29;20119;-79
2023/10/09 15:06:38;;;;;;;8.82;3.60;;;25.00;82.20;;;;;;4884159;29;20647;-80
2023/10/09 15:09:21;;;;;;;6.53;3.60;;;25.00;81.90;;;;;;4880794;29;20761;-78
2023/10/09 15:11:48;;;;;;;7.72;3.58;;;24.90;83.60;;;;;;4885198;29;20053;-78
2023/10/09 15:14:14;;;;;;;5.57;3.28;;;24.80;83.90;;;;;;4875134;29;20021;-78
2023/10/09 15:16:42;;;;;;;6.93;3.70;;;24.70;88.40;;;;;;4881262;29;20037;-78
2023/10/09 15:19:10;;;;;;;7.53;3.83;;;24.60;91.50;;;;;;4882957;29;20176;-78
2023/10/09 15:21:43;;;;;;;13.85;3.83;;;24.50;94.20;;;;;;4875811;29;20391;-78
2023/10/09 15:24:12;;;;;;;6.80;3.58;;;24.40;95.70;;;;;;4882966;29;20152;-77